createdAt,value
2024-01-09T00:00:17.230Z,26.492000
2024-01-09T00:05:19.380Z,25.652000
2024-01-09T00:10:21.005Z,25.100000
2024-01-09T00:15:23.122Z,24.710000
2024-01-09T00:20:25.166Z,24.224000
2024-01-09T00:25:26.964Z,23.696000
2024-01-09T00:30:28.902Z,23.168000
2024-01-09T00:35:30.935Z,22.688000
2024-01-09T00:40:32.919Z,22.232000
2024-01-09T00:45:37.015Z,21.932000
2024-01-09T00:50:16.712Z,21.584000
2024-01-09T00:55:18.680Z,21.380000
2024-01-09T01:00:20.738Z,21.236000
2024-01-09T01:05:23.195Z,21.200000
2024-01-09T01:10:24.491Z,20.936000
2024-01-09T01:15:26.758Z,20.672000
2024-01-09T01:20:29.021Z,20.660000
2024-01-09T01:25:31.058Z,20.660000
2024-01-09T01:30:33.037Z,20.660000
2024-01-09T01:35:35.171Z,20.660000
2024-01-09T01:40:16.691Z,20.660000
2024-01-09T01:45:18.748Z,20.528000
2024-01-09T01:50:21.782Z,20.204000
2024-01-09T01:55:23.807Z,20.055714
2024-01-09T02:00:25.700Z,19.940000
2024-01-09T02:05:27.834Z,19.880000
2024-01-09T02:10:29.584Z,19.760000
2024-01-09T02:15:31.559Z,19.616000
2024-01-09T02:20:33.733Z,19.580000
2024-01-09T02:25:35.588Z,19.400000
2024-01-09T02:30:17.429Z,19.268000
2024-01-09T02:35:19.123Z,19.220000
2024-01-09T02:40:21.107Z,19.160000
2024-01-09T02:45:23.078Z,19.155714
2024-01-09T02:50:25.040Z,19.316000
2024-01-09T02:55:26.936Z,19.424000
2024-01-09T03:00:28.666Z,19.580000
2024-01-09T03:05:33.877Z,19.292000
2024-01-09T03:10:33.702Z,19.100000
2024-01-09T03:15:35.662Z,19.112000
2024-01-09T03:20:17.315Z,19.040000
2024-01-09T03:25:19.404Z,19.088000
2024-01-09T03:30:21.179Z,18.764000
2024-01-09T03:35:23.205Z,18.410000
2024-01-09T03:40:25.179Z,18.368000
2024-01-09T03:45:27.124Z,18.752000
2024-01-09T03:50:29.852Z,18.500000
2024-01-09T03:55:32.528Z,18.608000
2024-01-09T04:00:35.286Z,18.176000
2024-01-09T04:05:17.447Z,17.636000
2024-01-09T04:10:19.428Z,17.240000
2024-01-09T04:15:21.027Z,17.324000
2024-01-09T04:20:23.349Z,17.638571
2024-01-09T04:25:25.126Z,18.284000
2024-01-09T04:30:27.037Z,18.680000
2024-01-09T04:35:28.909Z,18.680000
2024-01-09T04:40:30.906Z,18.680000
2024-01-09T04:45:33.181Z,18.656000
2024-01-09T04:50:35.341Z,18.500000
2024-01-09T04:55:17.432Z,18.560000
2024-01-09T05:00:19.374Z,18.284000
2024-01-09T05:05:22.069Z,18.284000
2024-01-09T05:10:23.922Z,18.320000
2024-01-09T05:15:25.891Z,18.320000
2024-01-09T05:20:27.896Z,18.356000
2024-01-09T05:25:29.785Z,18.344000
2024-01-09T05:30:31.869Z,18.464000
2024-01-09T05:35:33.962Z,18.248000
2024-01-09T05:40:35.867Z,17.984000
2024-01-09T05:45:17.608Z,17.816000
2024-01-09T05:50:19.618Z,17.324000
2024-01-09T05:55:21.565Z,17.540000
2024-01-09T06:00:23.496Z,17.510000
2024-01-09T06:05:26.680Z,17.288000
2024-01-09T06:10:29.308Z,17.660000
2024-01-09T06:15:32.451Z,17.828000
2024-01-09T06:20:35.497Z,18.596000
2024-01-09T06:25:18.251Z,19.028000
2024-01-09T06:30:21.020Z,19.376000
2024-01-09T06:35:23.688Z,19.618571
2024-01-09T06:40:26.256Z,19.592000
2024-01-09T06:45:28.457Z,19.088000
2024-01-09T06:50:37.314Z,18.860000
2024-01-09T06:55:32.548Z,18.788000
2024-01-09T07:00:36.110Z,18.860000
2024-01-09T07:05:18.252Z,19.232000
2024-01-09T07:10:19.739Z,20.408000
2024-01-09T07:15:22.362Z,19.736000
2024-01-09T07:20:24.222Z,18.255714
2024-01-09T07:25:26.211Z,16.496000
2024-01-09T07:30:28.046Z,15.560000
2024-01-09T07:35:30.136Z,15.368000
2024-01-09T07:40:32.398Z,14.972000
2024-01-09T07:45:34.230Z,15.152000
2024-01-09T07:50:16.433Z,15.548000
2024-01-09T07:55:18.539Z,15.704000
2024-01-09T08:00:21.267Z,15.740000
2024-01-09T08:05:24.191Z,15.632857
2024-01-09T08:10:26.639Z,15.848000
2024-01-09T08:15:29.902Z,16.184000
2024-01-09T08:20:32.635Z,16.964000
2024-01-09T08:25:35.539Z,17.660000
2024-01-09T08:30:18.208Z,18.536000
2024-01-09T08:35:20.065Z,17.804000
2024-01-09T08:40:22.078Z,15.836000
2024-01-09T08:45:24.001Z,14.732857
2024-01-09T08:50:26.032Z,14.456000
2024-01-09T08:55:28.238Z,14.636000
2024-01-09T09:00:30.175Z,14.180000
2024-01-09T09:05:33.633Z,14.432000
2024-01-09T09:10:34.083Z,14.876000
2024-01-09T09:15:15.907Z,15.080000
2024-01-09T09:20:17.850Z,15.044000
2024-01-09T09:25:19.899Z,14.876000
2024-01-09T09:30:21.948Z,14.816000
2024-01-09T09:35:23.872Z,15.015714
2024-01-09T09:40:25.991Z,15.380000
2024-01-09T09:45:27.821Z,15.908000
2024-01-09T09:50:29.968Z,16.112000
2024-01-09T09:55:31.956Z,15.968000
2024-01-09T10:00:33.939Z,15.656000
2024-01-09T10:05:35.895Z,15.620000
2024-01-09T10:10:17.593Z,15.704000
2024-01-09T10:15:19.540Z,16.028000
2024-01-09T10:20:22.823Z,16.412000
2024-01-09T10:25:23.464Z,16.700000
2024-01-09T10:30:25.311Z,16.868000
2024-01-09T10:35:27.191Z,17.060000
2024-01-09T10:40:29.233Z,17.180000
2024-01-09T10:45:31.252Z,17.060000
2024-01-09T10:50:33.141Z,16.880000
2024-01-09T10:55:35.050Z,17.276000
2024-01-09T11:00:17.170Z,18.404000
2024-01-09T11:05:19.227Z,18.860000
2024-01-09T11:10:20.919Z,19.040000
2024-01-09T11:15:22.426Z,19.258571
2024-01-09T11:20:24.316Z,19.532000
2024-01-09T11:25:26.216Z,19.604000
2024-01-09T11:30:28.284Z,19.652000
2024-01-09T11:35:30.218Z,19.592000
2024-01-09T11:40:32.225Z,19.580000
2024-01-09T11:45:33.963Z,19.712000
2024-01-09T11:50:36.073Z,19.760000
2024-01-09T11:55:17.826Z,19.916000
2024-01-09T12:00:19.800Z,20.072000
2024-01-09T12:05:21.658Z,20.132000
2024-01-09T12:10:30.764Z,20.300000
2024-01-09T12:15:25.274Z,20.336000
2024-01-09T12:20:27.474Z,20.480000
2024-01-09T12:25:29.276Z,20.504000
2024-01-09T12:30:31.108Z,20.660000
2024-01-09T12:35:33.075Z,20.660000
2024-01-09T12:40:35.095Z,20.804000
2024-01-09T12:45:16.867Z,21.104000
2024-01-09T12:50:18.814Z,21.296000
2024-01-09T12:55:20.868Z,21.620000
2024-01-09T13:00:22.817Z,21.881429
2024-01-09T13:05:25.250Z,22.076000
2024-01-09T13:10:27.175Z,22.376000
2024-01-09T13:15:29.385Z,22.460000
2024-01-09T13:20:31.929Z,22.376000
2024-01-09T13:25:33.703Z,22.892000
2024-01-09T13:30:48.711Z,23.444000
2024-01-09T13:35:17.839Z,23.612000
2024-01-09T13:40:20.877Z,24.020000
2024-01-09T13:45:24.008Z,24.080000
2024-01-09T13:51:47.588Z,23.840000
2024-01-09T13:51:51.653Z,23.840000
2024-01-09T13:55:29.193Z,23.264000
2024-01-09T14:00:31.914Z,23.180000
2024-01-09T14:05:35.350Z,23.132000
2024-01-09T14:10:17.408Z,23.312000
2024-01-09T14:15:19.513Z,23.384000
2024-01-09T14:20:21.562Z,23.540000
2024-01-09T14:25:24.700Z,23.630000
2024-01-09T14:30:27.397Z,23.816000
2024-01-09T14:35:29.749Z,23.900000
2024-01-09T14:40:31.924Z,23.936000
2024-01-09T14:45:33.814Z,24.008000
2024-01-09T14:50:35.756Z,23.684000
2024-01-09T14:55:17.722Z,23.540000
2024-01-09T15:00:19.585Z,23.600000
2024-01-09T15:05:21.936Z,23.888000
2024-01-09T15:10:23.529Z,24.002857
2024-01-09T15:15:25.656Z,24.296000
2024-01-09T15:20:27.635Z,24.464000
2024-01-09T15:25:29.366Z,24.668000
2024-01-09T15:30:31.424Z,24.896000
2024-01-09T15:35:33.392Z,24.980000
2024-01-09T15:40:35.263Z,24.980000
2024-01-09T15:45:16.903Z,24.980000
2024-01-09T15:50:18.934Z,25.100000
2024-01-09T15:55:20.781Z,25.160000
2024-01-09T16:00:22.734Z,25.160000
2024-01-09T16:05:24.663Z,25.160000
2024-01-09T16:10:26.433Z,25.160000
2024-01-09T16:15:28.794Z,25.292000
2024-01-09T16:20:31.228Z,25.340000
2024-01-09T16:25:33.281Z,25.304000
2024-01-09T16:30:35.079Z,25.340000
2024-01-09T16:35:16.847Z,25.448000
2024-01-09T16:40:18.708Z,25.616000
2024-01-09T16:45:20.381Z,25.700000
2024-01-09T16:50:22.637Z,25.815714
2024-01-09T16:55:24.997Z,25.880000
2024-01-09T17:00:26.752Z,25.988000
2024-01-09T17:05:28.711Z,26.072000
2024-01-09T17:10:30.622Z,26.252000
2024-01-09T17:15:32.628Z,26.564000
2024-01-09T17:20:34.572Z,26.744000
2024-01-09T17:25:16.392Z,26.816000
2024-01-09T17:30:18.287Z,26.984000
2024-01-09T17:35:20.338Z,27.140000
2024-01-09T17:40:22.075Z,27.242857
2024-01-09T17:45:24.004Z,27.500000
2024-01-09T17:50:25.897Z,27.620000
2024-01-09T17:55:28.253Z,27.548000
2024-01-09T18:00:32.182Z,27.632000
2024-01-09T18:05:32.275Z,27.824000
2024-01-09T18:10:34.085Z,27.680000
2024-01-09T18:15:35.896Z,27.932000
2024-01-09T18:20:17.854Z,27.956000
2024-01-09T18:25:19.819Z,27.860000
2024-01-09T18:30:21.737Z,27.860000
2024-01-09T18:35:23.522Z,27.731429
2024-01-09T18:40:25.554Z,27.680000
2024-01-09T18:45:27.267Z,27.800000
2024-01-09T18:50:29.196Z,27.860000
2024-01-09T18:55:31.338Z,27.860000
2024-01-09T19:00:33.279Z,27.860000
2024-01-09T19:05:35.317Z,27.692000
2024-01-09T19:10:16.868Z,27.728000
2024-01-09T19:15:19.468Z,27.860000
2024-01-09T19:20:21.503Z,27.704000
2024-01-09T19:25:23.835Z,27.680000
2024-01-09T19:30:27.338Z,27.680000
2024-01-09T19:35:28.703Z,27.644000
2024-01-09T19:40:31.712Z,28.028000
2024-01-09T19:45:34.885Z,28.568000
2024-01-09T19:50:17.590Z,28.508000
2024-01-09T19:55:20.435Z,28.580000
2024-01-09T20:00:22.998Z,28.811429
2024-01-09T20:05:24.860Z,29.132000
2024-01-09T20:10:26.973Z,29.420000
2024-01-09T20:15:28.977Z,29.516000
2024-01-09T20:20:31.721Z,29.480000
2024-01-09T20:25:35.024Z,29.720000
2024-01-09T20:30:17.280Z,30.236000
2024-01-09T20:35:19.836Z,30.428000
2024-01-09T20:40:22.899Z,30.238571
2024-01-09T20:45:26.683Z,30.080000
2024-01-09T20:50:27.805Z,30.068000
2024-01-09T20:55:30.508Z,30.488000
2024-01-09T21:00:32.474Z,30.836000
2024-01-09T21:05:35.232Z,30.560000
2024-01-09T21:10:18.103Z,30.428000
2024-01-09T21:15:23.540Z,30.584000
2024-01-09T21:20:23.455Z,30.701429
2024-01-09T21:25:25.603Z,31.076000
2024-01-09T21:30:28.740Z,31.412000
2024-01-09T21:35:31.071Z,31.916000
2024-01-09T21:40:38.025Z,32.132000
2024-01-09T21:45:16.053Z,32.360000
2024-01-09T21:50:18.496Z,32.660000
2024-01-09T21:55:20.738Z,33.428000
2024-01-09T22:00:22.908Z,33.440000
2024-01-09T22:05:24.804Z,33.488000
2024-01-09T22:10:26.779Z,33.236000
2024-01-09T22:15:28.819Z,33.620000
2024-01-09T22:20:31.454Z,33.584000
2024-01-09T22:25:35.076Z,33.584000
2024-01-09T22:30:17.322Z,33.500000
2024-01-09T22:35:19.808Z,34.100000
2024-01-09T22:40:22.175Z,33.684286
2024-01-09T22:45:24.398Z,33.728000
2024-01-09T22:50:26.361Z,34.136000
2024-01-09T22:55:28.610Z,34.268000
2024-01-09T23:00:30.491Z,34.328000
2024-01-09T23:05:32.646Z,34.556000
2024-01-09T23:10:34.747Z,34.796000
2024-01-09T23:15:16.685Z,34.784000
2024-01-09T23:20:18.882Z,34.040000
2024-01-09T23:25:21.142Z,33.956000
2024-01-09T23:30:23.369Z,33.684286
2024-01-09T23:35:25.841Z,33.476000
2024-01-09T23:40:27.354Z,33.284000
2024-01-09T23:45:29.270Z,33.104000
2024-01-09T23:50:31.366Z,32.900000
2024-01-09T23:55:33.459Z,32.816000
